sensor_id;sensor_type;location;lat;lon;timestamp;pressure;altitude;pressure_sealevel;temperature;humidity
14790;BME280;7486;51.010;10.366;2024-02-23T00:01:11;95560.44;;;6.16;65.76
14790;BME280;7486;51.010;10.366;2024-02-23T00:03:56;95579.03;;;6.31;65.13
14790;BME280;7486;51.010;10.366;2024-02-23T00:06:41;95526.09;;;5.84;66.84
14790;BME280;7486;51.010;10.366;2024-02-23T00:09:27;95593.91;;;6.04;67.42
14790;BME280;7486;51.010;10.366;2024-02-23T00:12:13;95580.88;;;5.92;68.49
14790;BME280;7486;51.010;10.366;2024-02-23T00:14:59;95585.66;;;5.79;68.77
14790;BME280;7486;51.010;10.366;2024-02-23T00:17:46;95619.59;;;5.68;68.15
14790;BME280;7486;51.010;10.366;2024-02-23T00:20:31;95612.13;;;5.44;68.39
14790;BME280;7486;51.010;10.366;2024-02-23T00:23:17;95598.44;;;5.13;70.96
14790;BME280;7486;51.010;10.366;2024-02-23T00:26:03;95634.75;;;4.93;71.49
14790;BME280;7486;51.010;10.366;2024-02-23T00:28:48;95640.78;;;5.17;70.38
14790;BME280;7486;51.010;10.366;2024-02-23T00:31:37;95646.53;;;4.91;70.75
14790;BME280;7486;51.010;10.366;2024-02-23T00:34:22;95653.75;;;5.12;67.74
14790;BME280;7486;51.010;10.366;2024-02-23T00:37:10;95669.97;;;5.09;68.10
14790;BME280;7486;51.010;10.366;2024-02-23T00:39:56;95668.78;;;4.88;68.80
14790;BME280;7486;51.010;10.366;2024-02-23T00:42:41;95656.81;;;4.81;68.96
14790;BME280;7486;51.010;10.366;2024-02-23T00:45:27;95696.28;;;5.26;67.84
14790;BME280;7486;51.010;10.366;2024-02-23T00:48:13;95700.72;;;5.37;67.98
14790;BME280;7486;51.010;10.366;2024-02-23T00:50:58;95689.31;;;5.59;66.80
14790;BME280;7486;51.010;10.366;2024-02-23T00:53:43;95685.41;;;5.62;65.74
14790;BME280;7486;51.010;10.366;2024-02-23T00:56:30;95695.97;;;5.50;65.91
14790;BME280;7486;51.010;10.366;2024-02-23T00:59:29;95684.31;;;5.58;67.00
14790;BME280;7486;51.010;10.366;2024-02-23T01:02:15;95681.72;;;5.06;70.12
14790;BME280;7486;51.010;10.366;2024-02-23T01:05:00;95727.13;;;4.95;72.96
14790;BME280;7486;51.010;10.366;2024-02-23T01:07:46;95732.72;;;4.87;73.93
14790;BME280;7486;51.010;10.366;2024-02-23T01:10:32;95745.53;;;4.60;75.22
14790;BME280;7486;51.010;10.366;2024-02-23T01:13:17;95736.41;;;4.51;75.63
14790;BME280;7486;51.010;10.366;2024-02-23T01:16:03;95741.66;;;4.51;75.86
14790;BME280;7486;51.010;10.366;2024-02-23T01:18:49;95760.22;;;4.61;76.17
14790;BME280;7486;51.010;10.366;2024-02-23T01:21:35;95774.00;;;4.45;76.52
14790;BME280;7486;51.010;10.366;2024-02-23T01:24:21;95794.88;;;4.52;76.87
14790;BME280;7486;51.010;10.366;2024-02-23T01:27:06;95792.09;;;4.35;79.01
14790;BME280;7486;51.010;10.366;2024-02-23T01:29:51;95795.00;;;4.04;81.52
14790;BME280;7486;51.010;10.366;2024-02-23T01:32:37;95806.09;;;3.88;80.78
14790;BME280;7486;51.010;10.366;2024-02-23T01:35:23;95800.28;;;3.56;82.93
14790;BME280;7486;51.010;10.366;2024-02-23T01:38:09;95807.25;;;3.62;84.06
14790;BME280;7486;51.010;10.366;2024-02-23T01:40:55;95813.84;;;3.64;83.88
14790;BME280;7486;51.010;10.366;2024-02-23T01:43:41;95815.75;;;3.76;82.95
14790;BME280;7486;51.010;10.366;2024-02-23T01:46:26;95828.84;;;3.57;83.29
14790;BME280;7486;51.010;10.366;2024-02-23T01:49:13;95849.38;;;3.90;82.80
14790;BME280;7486;51.010;10.366;2024-02-23T01:52:00;95834.22;;;3.62;82.63
14790;BME280;7486;51.010;10.366;2024-02-23T01:54:46;95853.47;;;3.50;82.63
14790;BME280;7486;51.010;10.366;2024-02-23T01:57:32;95869.56;;;3.35;82.70
14790;BME280;7486;51.010;10.366;2024-02-23T02:00:34;95887.44;;;3.38;81.88
14790;BME280;7486;51.010;10.366;2024-02-23T02:03:20;95902.34;;;3.38;81.32
14790;BME280;7486;51.010;10.366;2024-02-23T02:06:06;95897.47;;;3.41;81.24
14790;BME280;7486;51.010;10.366;2024-02-23T02:08:52;95870.94;;;3.13;81.37
14790;BME280;7486;51.010;10.366;2024-02-23T02:11:48;95906.59;;;3.32;80.69
14790;BME280;7486;51.010;10.366;2024-02-23T02:14:34;95910.94;;;3.20;80.77
14790;BME280;7486;51.010;10.366;2024-02-23T02:17:19;95903.22;;;3.32;80.86
14790;BME280;7486;51.010;10.366;2024-02-23T02:20:25;95921.53;;;3.50;79.78
14790;BME280;7486;51.010;10.366;2024-02-23T02:23:13;95915.06;;;3.52;79.44
14790;BME280;7486;51.010;10.366;2024-02-23T02:25:58;95901.47;;;3.44;79.70
14790;BME280;7486;51.010;10.366;2024-02-23T02:28:44;95907.66;;;3.68;78.66
14790;BME280;7486;51.010;10.366;2024-02-23T02:31:29;95909.91;;;3.82;78.32
14790;BME280;7486;51.010;10.366;2024-02-23T02:34:15;95914.03;;;3.90;77.75
14790;BME280;7486;51.010;10.366;2024-02-23T02:37:01;95919.28;;;3.90;76.89
14790;BME280;7486;51.010;10.366;2024-02-23T02:39:46;95927.63;;;3.98;75.03
14790;BME280;7486;51.010;10.366;2024-02-23T02:42:33;95929.53;;;3.91;75.52
14790;BME280;7486;51.010;10.366;2024-02-23T02:45:18;95926.41;;;3.64;75.00
14790;BME280;7486;51.010;10.366;2024-02-23T02:48:05;95921.81;;;3.60;74.74
14790;BME280;7486;51.010;10.366;2024-02-23T02:50:51;95931.06;;;3.44;74.27
14790;BME280;7486;51.010;10.366;2024-02-23T02:53:38;95943.56;;;3.60;74.62
14790;BME280;7486;51.010;10.366;2024-02-23T02:56:24;95908.22;;;3.51;72.72
14790;BME280;7486;51.010;10.366;2024-02-23T02:59:09;95938.34;;;3.42;73.09
14790;BME280;7486;51.010;10.366;2024-02-23T03:01:55;95940.88;;;3.49;73.54
14790;BME280;7486;51.010;10.366;2024-02-23T03:04:47;95948.78;;;3.60;72.38
14790;BME280;7486;51.010;10.366;2024-02-23T03:07:33;95904.59;;;3.34;71.63
14790;BME280;7486;51.010;10.366;2024-02-23T03:10:19;95965.38;;;3.91;71.90
14790;BME280;7486;51.010;10.366;2024-02-23T03:13:04;95969.75;;;3.79;71.61
14790;BME280;7486;51.010;10.366;2024-02-23T03:15:50;95976.38;;;3.81;71.96
14790;BME280;7486;51.010;10.366;2024-02-23T03:18:35;95998.31;;;3.62;73.82
14790;BME280;7486;51.010;10.366;2024-02-23T03:21:21;96008.56;;;2.83;78.82
14790;BME280;7486;51.010;10.366;2024-02-23T03:24:06;96032.69;;;1.89;85.14
14790;BME280;7486;51.010;10.366;2024-02-23T03:26:52;96024.75;;;1.12;89.19
14790;BME280;7486;51.010;10.366;2024-02-23T03:29:38;96052.72;;;0.84;92.57
14790;BME280;7486;51.010;10.366;2024-02-23T03:32:24;96016.00;;;0.59;93.04
14790;BME280;7486;51.010;10.366;2024-02-23T03:35:09;96039.16;;;1.21;90.65
14790;BME280;7486;51.010;10.366;2024-02-23T03:37:54;96059.84;;;1.55;88.60
14790;BME280;7486;51.010;10.366;2024-02-23T03:40:40;96056.25;;;1.43;87.98
14790;BME280;7486;51.010;10.366;2024-02-23T03:43:26;96062.03;;;1.52;87.41
14790;BME280;7486;51.010;10.366;2024-02-23T03:46:13;96050.78;;;1.51;87.44
14790;BME280;7486;51.010;10.366;2024-02-23T03:48:59;96063.25;;;1.49;86.74
14790;BME280;7486;51.010;10.366;2024-02-23T03:51:44;96075.88;;;1.52;87.24
14790;BME280;7486;51.010;10.366;2024-02-23T03:54:30;96075.06;;;1.72;86.72
14790;BME280;7486;51.010;10.366;2024-02-23T03:57:16;96030.31;;;1.68;84.42
14790;BME280;7486;51.010;10.366;2024-02-23T04:00:02;96090.50;;;1.93;85.53
14790;BME280;7486;51.010;10.366;2024-02-23T04:02:55;96084.44;;;2.19;84.00
14790;BME280;7486;51.010;10.366;2024-02-23T04:05:43;96034.91;;;1.79;83.48
14790;BME280;7486;51.010;10.366;2024-02-23T04:08:28;96073.63;;;2.08;83.49
14790;BME280;7486;51.010;10.366;2024-02-23T04:11:13;96101.28;;;2.23;81.85
14790;BME280;7486;51.010;10.366;2024-02-23T04:13:59;96098.66;;;2.23;81.45
14790;BME280;7486;51.010;10.366;2024-02-23T04:16:44;96106.75;;;2.14;81.09
14790;BME280;7486;51.010;10.366;2024-02-23T04:19:30;96121.59;;;2.14;82.27
14790;BME280;7486;51.010;10.366;2024-02-23T04:22:15;96103.78;;;1.91;81.80
14790;BME280;7486;51.010;10.366;2024-02-23T04:25:00;96119.41;;;2.04;80.85
14790;BME280;7486;51.010;10.366;2024-02-23T04:27:46;96133.50;;;1.71;81.40
14790;BME280;7486;51.010;10.366;2024-02-23T04:30:31;96125.66;;;1.77;80.20
14790;BME280;7486;51.010;10.366;2024-02-23T04:33:17;96140.28;;;1.72;80.12
14790;BME280;7486;51.010;10.366;2024-02-23T04:36:04;96117.03;;;1.63;79.86
14790;BME280;7486;51.010;10.366;2024-02-23T04:38:49;96156.75;;;1.79;79.30
14790;BME280;7486;51.010;10.366;2024-02-23T04:41:35;96146.31;;;1.79;79.11
14790;BME280;7486;51.010;10.366;2024-02-23T04:44:21;96130.66;;;1.72;78.49
14790;BME280;7486;51.010;10.366;2024-02-23T04:47:06;96142.31;;;1.89;77.77
14790;BME280;7486;51.010;10.366;2024-02-23T04:49:52;96135.09;;;1.98;78.26
14790;BME280;7486;51.010;10.366;2024-02-23T04:52:37;96138.88;;;2.15;77.31
14790;BME280;7486;51.010;10.366;2024-02-23T04:55:23;96153.13;;;2.19;76.91
14790;BME280;7486;51.010;10.366;2024-02-23T04:58:09;96144.25;;;2.27;75.92
14790;BME280;7486;51.010;10.366;2024-02-23T05:00:54;96157.75;;;2.17;76.42
14790;BME280;7486;51.010;10.366;2024-02-23T05:03:39;96156.53;;;2.33;76.52
14790;BME280;7486;51.010;10.366;2024-02-23T05:06:25;96161.94;;;2.31;75.87
14790;BME280;7486;51.010;10.366;2024-02-23T05:09:10;96172.41;;;2.25;76.52
14790;BME280;7486;51.010;10.366;2024-02-23T05:11:55;96143.06;;;2.23;75.55
14790;BME280;7486;51.010;10.366;2024-02-23T05:14:41;96180.66;;;2.22;75.31
14790;BME280;7486;51.010;10.366;2024-02-23T05:17:27;96182.47;;;2.08;74.71
14790;BME280;7486;51.010;10.366;2024-02-23T05:20:14;96191.50;;;1.99;75.27
14790;BME280;7486;51.010;10.366;2024-02-23T05:23:00;96200.75;;;1.88;76.03
14790;BME280;7486;51.010;10.366;2024-02-23T05:25:45;96192.91;;;1.75;77.23
14790;BME280;7486;51.010;10.366;2024-02-23T05:28:30;96175.84;;;1.86;76.24
14790;BME280;7486;51.010;10.366;2024-02-23T05:31:20;96192.53;;;1.91;75.53
14790;BME280;7486;51.010;10.366;2024-02-23T05:34:06;96186.50;;;1.78;75.59
14790;BME280;7486;51.010;10.366;2024-02-23T05:36:52;96184.69;;;1.91;75.81
14790;BME280;7486;51.010;10.366;2024-02-23T05:39:37;96168.81;;;1.80;74.54
14790;BME280;7486;51.010;10.366;2024-02-23T05:42:23;96195.72;;;1.67;75.18
14790;BME280;7486;51.010;10.366;2024-02-23T05:45:09;96200.13;;;1.53;75.87
14790;BME280;7486;51.010;10.366;2024-02-23T05:47:55;96194.28;;;1.51;75.13
14790;BME280;7486;51.010;10.366;2024-02-23T05:50:40;96198.50;;;1.59;75.47
14790;BME280;7486;51.010;10.366;2024-02-23T05:53:27;96183.84;;;1.51;75.46
14790;BME280;7486;51.010;10.366;2024-02-23T05:56:13;96194.47;;;1.43;75.28
14790;BME280;7486;51.010;10.366;2024-02-23T05:58:59;96194.88;;;1.40;75.55
14790;BME280;7486;51.010;10.366;2024-02-23T06:01:44;96201.47;;;1.36;75.69
14790;BME280;7486;51.010;10.366;2024-02-23T06:04:30;96210.13;;;1.43;75.64
14790;BME280;7486;51.010;10.366;2024-02-23T06:07:16;96187.88;;;1.60;74.45
14790;BME280;7486;51.010;10.366;2024-02-23T06:10:04;96158.56;;;1.45;74.23
14790;BME280;7486;51.010;10.366;2024-02-23T06:12:49;96182.44;;;1.42;74.76
14790;BME280;7486;51.010;10.366;2024-02-23T06:15:38;96192.84;;;1.42;75.16
14790;BME280;7486;51.010;10.366;2024-02-23T06:18:24;96190.84;;;1.44;75.05
14790;BME280;7486;51.010;10.366;2024-02-23T06:21:16;96208.50;;;1.42;75.71
14790;BME280;7486;51.010;10.366;2024-02-23T06:24:01;96204.72;;;1.58;74.17
14790;BME280;7486;51.010;10.366;2024-02-23T06:26:47;96222.56;;;1.48;74.71
14790;BME280;7486;51.010;10.366;2024-02-23T06:29:33;96228.19;;;1.51;74.78
14790;BME280;7486;51.010;10.366;2024-02-23T06:32:19;96238.06;;;1.76;73.71
14790;BME280;7486;51.010;10.366;2024-02-23T06:35:05;96233.88;;;2.01;73.02
14790;BME280;7486;51.010;10.366;2024-02-23T06:37:50;96236.50;;;1.88;72.14
14790;BME280;7486;51.010;10.366;2024-02-23T06:40:36;96253.97;;;1.87;73.04
14790;BME280;7486;51.010;10.366;2024-02-23T06:43:36;96257.97;;;1.90;72.61
14790;BME280;7486;51.010;10.366;2024-02-23T06:46:21;96244.72;;;1.85;72.40
14790;BME280;7486;51.010;10.366;2024-02-23T06:49:07;96254.97;;;2.06;73.09
14790;BME280;7486;51.010;10.366;2024-02-23T06:51:53;96231.44;;;1.67;71.76
14790;BME280;7486;51.010;10.366;2024-02-23T06:54:38;96258.78;;;1.84;72.47
14790;BME280;7486;51.010;10.366;2024-02-23T06:57:24;96278.03;;;1.83;73.67
14790;BME280;7486;51.010;10.366;2024-02-23T07:00:10;96281.63;;;1.69;74.09
14790;BME280;7486;51.010;10.366;2024-02-23T07:02:55;96279.22;;;1.74;72.83
14790;BME280;7486;51.010;10.366;2024-02-23T07:05:41;96297.72;;;1.85;73.29
14790;BME280;7486;51.010;10.366;2024-02-23T07:08:26;96290.06;;;1.71;73.67
14790;BME280;7486;51.010;10.366;2024-02-23T07:11:12;96304.47;;;1.53;74.03
14790;BME280;7486;51.010;10.366;2024-02-23T07:13:58;96316.44;;;1.41;74.47
14790;BME280;7486;51.010;10.366;2024-02-23T07:16:43;96317.03;;;1.37;75.42
14790;BME280;7486;51.010;10.366;2024-02-23T07:19:29;96315.25;;;1.44;75.44
14790;BME280;7486;51.010;10.366;2024-02-23T07:22:14;96332.97;;;1.61;74.83
14790;BME280;7486;51.010;10.366;2024-02-23T07:25:00;96330.19;;;1.63;74.97
14790;BME280;7486;51.010;10.366;2024-02-23T07:27:45;96345.28;;;1.74;74.68
14790;BME280;7486;51.010;10.366;2024-02-23T07:30:30;96342.81;;;1.59;74.39
14790;BME280;7486;51.010;10.366;2024-02-23T07:33:16;96345.41;;;1.59;74.15
14790;BME280;7486;51.010;10.366;2024-02-23T07:36:02;96341.25;;;1.78;73.74
14790;BME280;7486;51.010;10.366;2024-02-23T07:38:47;96358.53;;;1.79;73.18
14790;BME280;7486;51.010;10.366;2024-02-23T07:41:32;96338.06;;;1.83;72.44
14790;BME280;7486;51.010;10.366;2024-02-23T07:44:18;96349.38;;;2.23;71.95
14790;BME280;7486;51.010;10.366;2024-02-23T07:47:04;96359.66;;;2.31;71.33
14790;BME280;7486;51.010;10.366;2024-02-23T07:49:50;96355.22;;;2.18;71.78
14790;BME280;7486;51.010;10.366;2024-02-23T07:52:36;96347.59;;;2.23;71.30
14790;BME280;7486;51.010;10.366;2024-02-23T07:55:21;96347.19;;;2.20;71.13
14790;BME280;7486;51.010;10.366;2024-02-23T07:58:07;96351.81;;;2.37;72.77
14790;BME280;7486;51.010;10.366;2024-02-23T08:00:52;96329.13;;;2.25;72.34
14790;BME280;7486;51.010;10.366;2024-02-23T08:03:37;96343.22;;;2.50;71.67
14790;BME280;7486;51.010;10.366;2024-02-23T08:06:26;96356.88;;;2.52;70.54
14790;BME280;7486;51.010;10.366;2024-02-23T08:09:11;96346.19;;;2.40;71.46
14790;BME280;7486;51.010;10.366;2024-02-23T08:11:57;96352.84;;;2.36;72.54
14790;BME280;7486;51.010;10.366;2024-02-23T08:14:42;96343.41;;;2.35;71.96
14790;BME280;7486;51.010;10.366;2024-02-23T08:17:28;96364.88;;;2.24;71.70
14790;BME280;7486;51.010;10.366;2024-02-23T08:20:14;96358.47;;;2.46;70.62
14790;BME280;7486;51.010;10.366;2024-02-23T08:22:59;96344.38;;;2.60;71.33
14790;BME280;7486;51.010;10.366;2024-02-23T08:25:44;96354.66;;;2.62;70.90
14790;BME280;7486;51.010;10.366;2024-02-23T08:28:30;96357.66;;;2.65;70.54
14790;BME280;7486;51.010;10.366;2024-02-23T08:31:16;96385.03;;;2.83;69.18
14790;BME280;7486;51.010;10.366;2024-02-23T08:34:01;96376.97;;;2.71;68.75
14790;BME280;7486;51.010;10.366;2024-02-23T08:36:46;96368.31;;;2.64;69.08
14790;BME280;7486;51.010;10.366;2024-02-23T08:39:32;96390.66;;;2.80;67.62
14790;BME280;7486;51.010;10.366;2024-02-23T08:42:17;96372.56;;;2.98;68.42
14790;BME280;7486;51.010;10.366;2024-02-23T08:45:03;96380.78;;;3.14;68.01
14790;BME280;7486;51.010;10.366;2024-02-23T08:47:49;96368.09;;;3.05;66.68
14790;BME280;7486;51.010;10.366;2024-02-23T08:50:34;96368.31;;;3.03;68.08
14790;BME280;7486;51.010;10.366;2024-02-23T08:53:20;96375.38;;;2.83;66.98
14790;BME280;7486;51.010;10.366;2024-02-23T08:56:06;96369.72;;;3.06;66.86
14790;BME280;7486;51.010;10.366;2024-02-23T08:58:52;96353.63;;;3.02;67.00
14790;BME280;7486;51.010;10.366;2024-02-23T09:01:38;96372.53;;;2.85;68.06
14790;BME280;7486;51.010;10.366;2024-02-23T09:04:23;96361.69;;;3.01;66.80
14790;BME280;7486;51.010;10.366;2024-02-23T09:07:09;96321.47;;;2.82;66.17
14790;BME280;7486;51.010;10.366;2024-02-23T09:09:55;96365.69;;;2.71;66.57
14790;BME280;7486;51.010;10.366;2024-02-23T09:12:41;96366.13;;;2.94;67.68
14790;BME280;7486;51.010;10.366;2024-02-23T09:15:26;96364.47;;;3.06;66.72
14790;BME280;7486;51.010;10.366;2024-02-23T09:18:11;96360.03;;;3.13;67.43
14790;BME280;7486;51.010;10.366;2024-02-23T09:20:57;96333.88;;;3.13;67.38
14790;BME280;7486;51.010;10.366;2024-02-23T09:23:42;96357.19;;;3.28;65.78
14790;BME280;7486;51.010;10.366;2024-02-23T09:26:28;96343.50;;;3.26;68.20
14790;BME280;7486;51.010;10.366;2024-02-23T09:29:14;96347.28;;;3.49;66.15
14790;BME280;7486;51.010;10.366;2024-02-23T09:31:59;96347.03;;;3.64;67.12
14790;BME280;7486;51.010;10.366;2024-02-23T09:34:45;96351.72;;;4.00;66.04
14790;BME280;7486;51.010;10.366;2024-02-23T09:37:30;96348.97;;;3.82;64.18
14790;BME280;7486;51.010;10.366;2024-02-23T09:40:16;96352.28;;;3.57;64.29
14790;BME280;7486;51.010;10.366;2024-02-23T09:43:03;96359.72;;;3.60;66.42
14790;BME280;7486;51.010;10.366;2024-02-23T09:45:52;96351.03;;;3.73;63.35
14790;BME280;7486;51.010;10.366;2024-02-23T09:48:38;96342.59;;;3.64;64.84
14790;BME280;7486;51.010;10.366;2024-02-23T09:51:28;96349.09;;;4.00;65.31
14790;BME280;7486;51.010;10.366;2024-02-23T09:54:14;96347.06;;;4.02;64.89
14790;BME280;7486;51.010;10.366;2024-02-23T09:57:07;96362.00;;;4.33;64.07
14790;BME280;7486;51.010;10.366;2024-02-23T09:59:53;96354.50;;;4.36;63.88
14790;BME280;7486;51.010;10.366;2024-02-23T10:02:40;96357.31;;;4.41;62.53
14790;BME280;7486;51.010;10.366;2024-02-23T10:05:29;96345.50;;;4.26;62.24
14790;BME280;7486;51.010;10.366;2024-02-23T10:08:21;96357.34;;;4.59;62.39
14790;BME280;7486;51.010;10.366;2024-02-23T10:11:07;96342.34;;;4.42;61.00
14790;BME280;7486;51.010;10.366;2024-02-23T10:13:52;96318.88;;;3.97;62.74
14790;BME280;7486;51.010;10.366;2024-02-23T10:16:38;96328.47;;;4.10;60.31
14790;BME280;7486;51.010;10.366;2024-02-23T10:19:27;96340.09;;;4.21;61.21
14790;BME280;7486;51.010;10.366;2024-02-23T10:22:12;96343.97;;;4.11;61.73
14790;BME280;7486;51.010;10.366;2024-02-23T10:24:59;96345.88;;;4.29;62.57
14790;BME280;7486;51.010;10.366;2024-02-23T10:27:45;96357.78;;;4.25;61.05
14790;BME280;7486;51.010;10.366;2024-02-23T10:30:31;96362.03;;;4.26;61.05
14790;BME280;7486;51.010;10.366;2024-02-23T10:33:20;96370.47;;;4.28;60.56
14790;BME280;7486;51.010;10.366;2024-02-23T10:36:09;96370.78;;;4.45;62.42
14790;BME280;7486;51.010;10.366;2024-02-23T10:39:02;96370.31;;;4.54;58.98
14790;BME280;7486;51.010;10.366;2024-02-23T10:41:56;96362.22;;;4.56;60.36
14790;BME280;7486;51.010;10.366;2024-02-23T10:44:42;96332.25;;;4.45;60.45
14790;BME280;7486;51.010;10.366;2024-02-23T10:47:30;96362.22;;;4.56;60.14
14790;BME280;7486;51.010;10.366;2024-02-23T10:50:17;96362.94;;;4.69;60.73
14790;BME280;7486;51.010;10.366;2024-02-23T10:53:07;96352.53;;;4.56;58.97
14790;BME280;7486;51.010;10.366;2024-02-23T10:55:56;96348.59;;;4.72;60.87
14790;BME280;7486;51.010;10.366;2024-02-23T10:58:41;96355.06;;;4.94;59.93
14790;BME280;7486;51.010;10.366;2024-02-23T11:01:27;96351.78;;;4.99;58.30
14790;BME280;7486;51.010;10.366;2024-02-23T11:04:13;96354.00;;;5.02;59.86
14790;BME280;7486;51.010;10.366;2024-02-23T11:07:00;96361.56;;;5.16;59.66
14790;BME280;7486;51.010;10.366;2024-02-23T11:10:49;96373.56;;;5.24;59.03
14790;BME280;7486;51.010;10.366;2024-02-23T11:13:38;96367.22;;;5.13;59.08
14790;BME280;7486;51.010;10.366;2024-02-23T11:16:25;96356.91;;;5.12;60.27
14790;BME280;7486;51.010;10.366;2024-02-23T11:19:11;96366.38;;;5.38;60.63
14790;BME280;7486;51.010;10.366;2024-02-23T11:21:58;96364.41;;;5.69;60.10
14790;BME280;7486;51.010;10.366;2024-02-23T11:24:44;96366.56;;;5.91;59.33
14790;BME280;7486;51.010;10.366;2024-02-23T11:27:31;96362.34;;;5.90;58.12
14790;BME280;7486;51.010;10.366;2024-02-23T11:30:17;96339.31;;;5.74;55.69
14790;BME280;7486;51.010;10.366;2024-02-23T11:33:03;96339.13;;;5.87;57.37
14790;BME280;7486;51.010;10.366;2024-02-23T11:35:48;96364.81;;;6.33;56.81
14790;BME280;7486;51.010;10.366;2024-02-23T11:38:34;96351.31;;;6.41;56.01
14790;BME280;7486;51.010;10.366;2024-02-23T11:41:22;96372.09;;;6.31;56.18
14790;BME280;7486;51.010;10.366;2024-02-23T11:44:07;96361.94;;;6.34;56.09
14790;BME280;7486;51.010;10.366;2024-02-23T11:46:53;96359.31;;;6.34;58.39
14790;BME280;7486;51.010;10.366;2024-02-23T11:49:39;96350.47;;;6.17;57.83
14790;BME280;7486;51.010;10.366;2024-02-23T11:52:24;96352.06;;;6.18;56.64
14790;BME280;7486;51.010;10.366;2024-02-23T11:55:10;96359.06;;;6.24;57.10
14790;BME280;7486;51.010;10.366;2024-02-23T11:57:55;96357.84;;;6.38;55.75
14790;BME280;7486;51.010;10.366;2024-02-23T12:00:52;96365.63;;;6.45;54.10
14790;BME280;7486;51.010;10.366;2024-02-23T12:03:38;96352.13;;;6.41;53.32
14790;BME280;7486;51.010;10.366;2024-02-23T12:06:24;96355.78;;;5.81;53.91
14790;BME280;7486;51.010;10.366;2024-02-23T12:09:10;96342.50;;;5.76;54.18
14790;BME280;7486;51.010;10.366;2024-02-23T12:11:55;96343.59;;;5.86;55.98
14790;BME280;7486;51.010;10.366;2024-02-23T12:14:41;96351.25;;;6.17;55.00
14790;BME280;7486;51.010;10.366;2024-02-23T12:18:03;96345.41;;;6.45;54.75
14790;BME280;7486;51.010;10.366;2024-02-23T12:20:49;96342.31;;;6.48;54.46
14790;BME280;7486;51.010;10.366;2024-02-23T12:23:42;96344.13;;;6.78;52.45
14790;BME280;7486;51.010;10.366;2024-02-23T12:26:28;96352.97;;;6.95;53.58
14790;BME280;7486;51.010;10.366;2024-02-23T12:29:14;96337.31;;;6.47;53.70
14790;BME280;7486;51.010;10.366;2024-02-23T12:32:04;96329.22;;;6.60;52.37
14790;BME280;7486;51.010;10.366;2024-02-23T12:34:52;96352.72;;;6.85;51.90
14790;BME280;7486;51.010;10.366;2024-02-23T12:37:38;96324.84;;;6.54;51.26
14790;BME280;7486;51.010;10.366;2024-02-23T12:40:27;96217.50;;;5.56;51.85
14790;BME280;7486;51.010;10.366;2024-02-23T12:43:12;96362.66;;;6.41;50.89
14790;BME280;7486;51.010;10.366;2024-02-23T12:45:57;96351.28;;;5.99;53.09
14790;BME280;7486;51.010;10.366;2024-02-23T12:48:43;96368.97;;;6.40;52.54
14790;BME280;7486;51.010;10.366;2024-02-23T12:51:28;96359.13;;;6.06;52.65
14790;BME280;7486;51.010;10.366;2024-02-23T12:54:14;96363.28;;;6.25;52.91
14790;BME280;7486;51.010;10.366;2024-02-23T12:56:59;96348.50;;;6.12;51.71
14790;BME280;7486;51.010;10.366;2024-02-23T12:59:44;96369.78;;;5.93;52.35
14790;BME280;7486;51.010;10.366;2024-02-23T13:02:47;96358.53;;;5.86;53.30
14790;BME280;7486;51.010;10.366;2024-02-23T13:05:34;96357.41;;;5.82;53.25
14790;BME280;7486;51.010;10.366;2024-02-23T13:08:19;96369.53;;;5.64;53.45
14790;BME280;7486;51.010;10.366;2024-02-23T13:11:04;96362.38;;;5.72;54.75
14790;BME280;7486;51.010;10.366;2024-02-23T13:13:53;96364.94;;;6.08;52.79
14790;BME280;7486;51.010;10.366;2024-02-23T13:16:39;96363.22;;;6.02;53.31
14790;BME280;7486;51.010;10.366;2024-02-23T13:19:25;96374.91;;;6.17;53.45
14790;BME280;7486;51.010;10.366;2024-02-23T13:22:11;96379.78;;;6.32;54.37
14790;BME280;7486;51.010;10.366;2024-02-23T13:24:56;96374.47;;;6.50;53.74
14790;BME280;7486;51.010;10.366;2024-02-23T13:27:42;96394.25;;;6.64;50.80
14790;BME280;7486;51.010;10.366;2024-02-23T13:30:27;96397.59;;;6.30;51.86
14790;BME280;7486;51.010;10.366;2024-02-23T13:33:13;96386.38;;;6.23;55.00
14790;BME280;7486;51.010;10.366;2024-02-23T13:35:59;96383.59;;;6.78;54.08
14790;BME280;7486;51.010;10.366;2024-02-23T13:38:44;96377.97;;;6.86;51.00
14790;BME280;7486;51.010;10.366;2024-02-23T13:41:30;96378.22;;;6.84;50.78
14790;BME280;7486;51.010;10.366;2024-02-23T13:44:15;96369.53;;;6.84;51.26
14790;BME280;7486;51.010;10.366;2024-02-23T13:47:00;96374.47;;;6.62;49.88
14790;BME280;7486;51.010;10.366;2024-02-23T13:49:46;96374.28;;;6.63;50.68
14790;BME280;7486;51.010;10.366;2024-02-23T13:52:31;96355.34;;;6.43;52.33
14790;BME280;7486;51.010;10.366;2024-02-23T13:55:17;96355.97;;;6.57;50.22
14790;BME280;7486;51.010;10.366;2024-02-23T13:58:03;96374.53;;;6.32;50.72
14790;BME280;7486;51.010;10.366;2024-02-23T14:00:48;96382.44;;;6.14;51.82
14790;BME280;7486;51.010;10.366;2024-02-23T14:03:34;96384.06;;;6.15;54.04
14790;BME280;7486;51.010;10.366;2024-02-23T14:06:21;96386.25;;;6.18;56.04
14790;BME280;7486;51.010;10.366;2024-02-23T14:09:07;96381.53;;;5.72;59.56
14790;BME280;7486;51.010;10.366;2024-02-23T14:11:52;96366.19;;;5.57;61.19
14790;BME280;7486;51.010;10.366;2024-02-23T14:14:39;96379.78;;;5.84;59.45
14790;BME280;7486;51.010;10.366;2024-02-23T14:17:24;96380.53;;;5.37;61.73
14790;BME280;7486;51.010;10.366;2024-02-23T14:20:10;96378.50;;;5.14;62.50
14790;BME280;7486;51.010;10.366;2024-02-23T14:22:56;96378.03;;;5.24;61.90
14790;BME280;7486;51.010;10.366;2024-02-23T14:25:41;96375.63;;;5.22;63.08
14790;BME280;7486;51.010;10.366;2024-02-23T14:28:27;96392.50;;;5.51;60.35
14790;BME280;7486;51.010;10.366;2024-02-23T14:31:12;96395.72;;;5.03;60.95
14790;BME280;7486;51.010;10.366;2024-02-23T14:33:57;96393.84;;;4.92;61.45
14790;BME280;7486;51.010;10.366;2024-02-23T14:36:43;96394.63;;;4.93;61.79
14790;BME280;7486;51.010;10.366;2024-02-23T14:39:28;96388.09;;;5.02;59.92
14790;BME280;7486;51.010;10.366;2024-02-23T14:42:14;96379.34;;;5.08;59.68
14790;BME280;7486;51.010;10.366;2024-02-23T14:44:59;96369.34;;;4.74;59.74
14790;BME280;7486;51.010;10.366;2024-02-23T14:47:45;96390.47;;;5.10;60.69
14790;BME280;7486;51.010;10.366;2024-02-23T14:50:30;96386.53;;;4.94;60.42
14790;BME280;7486;51.010;10.366;2024-02-23T14:53:16;96380.91;;;4.91;61.49